Time;durP1;ratioP1;P1;durP2;ratioP2;P2;SDS_P1;SDS_P2;PMS_P1;PMS_P2;Temp;Humidity;BMP_temperature;BMP_pressure;BME280_temperature;BME280_humidity;BME280_pressure;Samples;Min_cycle;Max_cycle;Signal;HPM_P1;HPM_P2
2023/09/02 00:00:13;;;;;;;8.07;5.32;;;17.30;99.90;;;;;;6133416;23;20017;-90
2023/09/02 00:02:39;;;;;;;8.13;6.50;;;17.40;99.90;;;;;;6136097;23;20092;-90
2023/09/02 00:05:05;;;;;;;7.80;5.88;;;17.50;99.90;;;;;;6135638;23;20024;-90
2023/09/02 00:07:34;;;;;;;8.55;6.53;;;17.60;99.90;;;;;;6135685;23;20087;-90
2023/09/02 00:10:00;;;;;;;8.38;6.72;;;17.70;99.90;;;;;;6137796;23;20028;-90
2023/09/02 00:12:28;;;;;;;10.52;7.40;;;17.70;99.90;;;;;;6152872;23;20039;-90
2023/09/02 00:14:54;;;;;;;9.98;7.40;;;17.80;99.90;;;;;;6131361;23;20031;-90
2023/09/02 00:17:21;;;;;;;7.55;6.10;;;17.90;99.90;;;;;;6146027;23;20024;-90
2023/09/02 00:19:47;;;;;;;8.30;6.10;;;17.90;99.90;;;;;;6151933;23;20093;-90
2023/09/02 00:22:13;;;;;;;7.68;6.15;;;17.90;99.90;;;;;;6156588;23;20001;-88
2023/09/02 00:24:41;;;;;;;7.38;5.93;;;18.00;99.90;;;;;;6137066;23;20001;-88
2023/09/02 00:27:07;;;;;;;7.93;6.30;;;18.10;99.90;;;;;;6157892;23;20373;-89
2023/09/02 00:29:33;;;;;;;8.32;5.47;;;18.10;99.90;;;;;;6140366;23;20017;-90
2023/09/02 00:31:58;;;;;;;10.57;5.93;;;18.20;99.90;;;;;;6114050;23;20017;-90
2023/09/02 00:34:24;;;;;;;7.88;6.15;;;18.20;99.90;;;;;;6136336;23;20430;-90
2023/09/02 00:36:50;;;;;;;7.60;6.22;;;18.30;99.90;;;;;;6135260;23;20477;-90
2023/09/02 00:39:16;;;;;;;8.68;7.07;;;18.30;99.90;;;;;;6134450;23;20738;-89
2023/09/02 00:41:49;;;;;;;8.90;6.45;;;18.30;99.90;;;;;;6134511;23;20032;-89
2023/09/02 00:44:15;;;;;;;9.18;6.93;;;18.20;99.90;;;;;;6134134;23;20013;-90
2023/09/02 00:46:41;;;;;;;7.28;6.53;;;18.30;99.90;;;;;;6159256;23;20017;-90
2023/09/02 00:49:07;;;;;;;7.38;6.43;;;18.20;99.90;;;;;;6134503;23;20013;-91
2023/09/02 00:51:33;;;;;;;10.07;7.30;;;18.20;99.90;;;;;;6110102;23;20150;-90
2023/09/02 00:54:05;;;;;;;8.13;6.35;;;18.30;99.90;;;;;;6109523;23;20013;-90
2023/09/02 00:56:32;;;;;;;8.45;6.50;;;18.30;99.90;;;;;;6134301;23;20016;-90
2023/09/02 00:59:02;;;;;;;7.28;5.68;;;17.90;99.90;;;;;;6133474;23;20013;-89
2023/09/02 01:01:29;;;;;;;6.50;5.43;;;17.60;99.90;;;;;;6134162;23;20329;-89
2023/09/02 01:03:56;;;;;;;5.47;4.97;;;17.40;99.90;;;;;;6133085;23;20025;-89
2023/09/02 01:06:25;;;;;;;7.18;5.22;;;17.30;99.90;;;;;;6134777;23;20017;-90
2023/09/02 01:08:51;;;;;;;5.75;5.15;;;17.20;99.90;;;;;;6134274;23;20473;-90
2023/09/02 01:11:17;;;;;;;5.68;4.93;;;17.10;99.90;;;;;;6134064;23;20024;-90
2023/09/02 01:13:43;;;;;;;7.20;4.97;;;16.90;99.90;;;;;;6108732;23;20013;-90
2023/09/02 01:16:09;;;;;;;6.95;4.72;;;16.90;99.90;;;;;;6109173;23;20484;-90
2023/09/02 01:19:04;;;;;;;5.07;4.57;;;16.80;99.90;;;;;;6134134;23;20017;-90
2023/09/02 01:21:50;;;;;;;5.45;4.88;;;16.70;99.90;;;;;;6133137;23;20013;-89
2023/09/02 01:24:45;;;;;;;5.35;4.35;;;16.50;99.90;;;;;;6133112;23;20044;-89
2023/09/02 01:28:09;;;;;;;4.13;3.70;;;16.60;99.90;;;;;;6131793;23;20118;-90
2023/09/02 01:31:03;;;;;;;4.13;3.72;;;16.50;99.90;;;;;;6090950;23;20446;-90
2023/09/02 01:33:49;;;;;;;6.75;4.03;;;16.60;99.90;;;;;;6121567;23;20040;-89
2023/09/02 01:36:22;;;;;;;5.32;4.60;;;16.40;99.90;;;;;;6131714;23;20311;-90
2023/09/02 01:39:29;;;;;;;3.67;3.38;;;16.30;99.90;;;;;;6134065;23;20017;-89
2023/09/02 01:42:32;;;;;;;7.40;4.03;;;16.40;99.90;;;;;;6122908;23;20056;-90
2023/09/02 01:45:04;;;;;;;4.68;4.28;;;16.40;99.90;;;;;;6130347;23;20465;-90
2023/09/02 01:47:41;;;;;;;4.90;4.40;;;16.50;99.90;;;;;;6134379;23;20044;-90
2023/09/02 01:50:13;;;;;;;5.15;4.55;;;16.40;99.90;;;;;;6135399;23;20017;-90
2023/09/02 01:52:42;;;;;;;6.28;4.68;;;16.50;99.90;;;;;;6135533;23;20013;-91
2023/09/02 01:55:08;;;;;;;5.07;4.40;;;16.50;99.90;;;;;;6135032;23;20069;-90
2023/09/02 01:57:34;;;;;;;5.20;4.70;;;16.50;99.90;;;;;;6135287;23;20052;-90
2023/09/02 02:00:00;;;;;;;5.43;4.35;;;16.60;99.90;;;;;;6111418;23;20013;-92
2023/09/02 02:02:26;;;;;;;4.97;4.28;;;16.40;99.90;;;;;;6134927;23;20354;-90
2023/09/02 02:05:01;;;;;;;4.90;4.40;;;16.50;99.90;;;;;;6111723;23;20470;-89
2023/09/02 02:07:32;;;;;;;;;;;16.50;99.90;;;;;;6110880;23;20013;-90
2023/09/02 02:10:01;;;;;;;5.60;4.07;;;16.40;99.90;;;;;;6135467;23;20219;-90
2023/09/02 02:12:28;;;;;;;5.93;4.15;;;15.60;99.90;;;;;;6134882;23;20075;-91
2023/09/02 02:14:53;;;;;;;3.20;2.88;;;16.30;99.90;;;;;;6135653;23;20009;-90
2023/09/02 02:17:22;;;;;;;3.42;2.70;;;16.10;99.90;;;;;;6135395;23;20307;-90
2023/09/02 02:19:50;;;;;;;3.75;2.55;;;16.00;99.90;;;;;;6135565;23;20013;-90
2023/09/02 02:22:17;;;;;;;2.45;2.25;;;16.00;99.90;;;;;;6111747;23;20052;-90
2023/09/02 02:24:43;;;;;;;2.60;2.40;;;16.10;99.90;;;;;;6111077;23;20009;-90
2023/09/02 02:27:09;;;;;;;2.85;2.53;;;16.00;99.90;;;;;;6107489;23;20020;-90
2023/09/02 02:29:35;;;;;;;3.42;3.13;;;16.00;99.90;;;;;;6086026;23;20013;-90
2023/09/02 02:32:01;;;;;;;4.45;4.05;;;16.10;99.90;;;;;;6135393;23;20013;-90
2023/09/02 02:34:30;;;;;;;5.30;4.70;;;16.20;99.90;;;;;;6134565;23;20068;-91
2023/09/02 02:36:55;;;;;;;5.15;4.35;;;16.10;99.90;;;;;;6110563;23;20446;-90
2023/09/02 02:39:21;;;;;;;5.35;4.00;;;16.20;99.90;;;;;;6134908;23;20019;-89
2023/09/02 02:41:47;;;;;;;4.50;4.10;;;16.10;99.90;;;;;;6135068;23;20036;-89
2023/09/02 02:44:13;;;;;;;5.30;4.80;;;16.20;99.90;;;;;;6110465;23;20308;-89
2023/09/02 02:46:41;;;;;;;8.05;5.93;;;16.20;99.90;;;;;;6134750;23;20016;-88
2023/09/02 02:49:07;;;;;;;7.78;6.63;;;16.20;99.90;;;;;;6134564;23;20020;-89
2023/09/02 02:51:33;;;;;;;8.68;6.45;;;16.20;99.90;;;;;;6135187;23;20342;-88
2023/09/02 02:53:59;;;;;;;6.43;5.68;;;;;;;;;;6135231;23;20017;-89
2023/09/02 02:56:26;;;;;;;6.88;6.18;;;16.30;99.90;;;;;;6134165;23;20573;-89
2023/09/02 02:58:53;;;;;;;5.90;5.32;;;16.30;99.90;;;;;;6134878;23;20017;-89
2023/09/02 03:01:20;;;;;;;7.82;5.55;;;16.40;99.90;;;;;;6134050;23;20020;-89
2023/09/02 03:03:46;;;;;;;8.05;5.85;;;16.30;99.90;;;;;;6133437;23;20021;-90
2023/09/02 03:06:20;;;;;;;7.72;6.03;;;16.40;99.90;;;;;;6133627;23;20021;-89
2023/09/02 03:08:45;;;;;;;8.60;5.20;;;16.30;99.90;;;;;;6133580;23;20333;-88
2023/09/02 03:11:11;;;;;;;6.30;5.68;;;16.20;99.90;;;;;;6133912;23;20103;-90
2023/09/02 03:13:37;;;;;;;11.05;7.90;;;16.20;99.90;;;;;;6158878;23;20378;-90
2023/09/02 03:16:06;;;;;;;11.23;6.90;;;16.20;99.90;;;;;;6110480;23;20822;-88
2023/09/02 03:18:32;;;;;;;9.77;6.50;;;16.20;99.90;;;;;;6133603;23;20021;-90
2023/09/02 03:21:06;;;;;;;7.90;6.97;;;16.30;99.90;;;;;;6133908;23;20021;-90
2023/09/02 03:23:36;;;;;;;8.68;6.78;;;16.30;99.90;;;;;;6158444;23;20020;-90
2023/09/02 03:26:15;;;;;;;7.00;5.70;;;16.30;99.90;;;;;;6109496;23;20021;-89
2023/09/02 03:28:41;;;;;;;9.90;6.68;;;16.30;99.90;;;;;;6133533;23;20013;-90
2023/09/02 03:31:10;;;;;;;8.73;6.53;;;16.30;99.90;;;;;;6133294;23;20100;-90
2023/09/02 03:33:37;;;;;;;10.38;7.70;;;16.30;99.90;;;;;;6133631;23;20028;-90
2023/09/02 03:36:04;;;;;;;10.15;7.78;;;16.40;99.90;;;;;;6132221;23;20013;-90
2023/09/02 03:38:30;;;;;;;9.02;7.15;;;16.30;99.90;;;;;;6132937;23;20068;-90
2023/09/02 03:40:59;;;;;;;8.70;6.88;;;16.40;99.90;;;;;;6133724;23;20015;-89
2023/09/02 03:43:25;;;;;;;7.43;6.63;;;16.40;99.90;;;;;;6134553;23;20013;-90
2023/09/02 03:45:57;;;;;;;6.47;5.32;;;16.40;99.90;;;;;;6111186;23;20036;-90
2023/09/02 03:48:23;;;;;;;7.20;6.00;;;16.40;99.90;;;;;;6133839;23;20024;-89
2023/09/02 03:51:05;;;;;;;10.75;6.03;;;16.40;99.90;;;;;;6109349;23;20020;-90
2023/09/02 03:53:32;;;;;;;6.50;5.65;;;16.40;99.90;;;;;;6134597;23;20096;-89
2023/09/02 03:56:01;;;;;;;5.78;4.32;;;16.80;99.90;;;;;;6134395;23;20013;-90
2023/09/02 03:58:28;;;;;;;5.22;4.55;;;16.20;99.90;;;;;;6134204;23;20017;-89
2023/09/02 04:00:57;;;;;;;5.55;4.95;;;16.20;99.90;;;;;;6110126;23;20091;-89
2023/09/02 04:03:24;;;;;;;6.25;5.43;;;15.20;99.90;;;;;;6158222;23;20020;-90
2023/09/02 04:05:53;;;;;;;7.60;5.75;;;16.20;99.90;;;;;;6134182;23;20016;-89
2023/09/02 04:08:25;;;;;;;7.95;5.90;;;16.30;99.90;;;;;;6134711;23;20071;-90
2023/09/02 04:10:55;;;;;;;9.20;6.47;;;16.40;99.90;;;;;;6132017;23;20315;-90
2023/09/02 04:13:26;;;;;;;9.30;6.35;;;16.40;99.90;;;;;;6134074;23;20067;-90
2023/09/02 04:15:56;;;;;;;8.73;5.90;;;16.50;99.90;;;;;;6134597;23;20017;-90
2023/09/02 04:18:22;;;;;;;6.18;5.53;;;16.50;99.90;;;;;;6134956;23;20096;-89
2023/09/02 04:20:48;;;;;;;7.00;6.03;;;16.60;99.90;;;;;;6111167;23;20079;-88
2023/09/02 04:23:17;;;;;;;5.97;5.38;;;16.50;99.90;;;;;;6110952;23;20051;-88
2023/09/02 04:25:48;;;;;;;5.30;4.70;;;16.40;99.90;;;;;;6111545;23;20013;-89
2023/09/02 04:28:14;;;;;;;4.97;4.47;;;16.40;99.90;;;;;;6134762;23;20013;-89
2023/09/02 04:30:42;;;;;;;5.25;4.60;;;16.40;99.90;;;;;;6110222;23;20051;-89
2023/09/02 04:33:09;;;;;;;5.15;4.65;;;16.30;99.90;;;;;;6111432;23;20032;-89
2023/09/02 04:35:38;;;;;;;5.35;4.85;;;16.30;99.90;;;;;;6135235;23;20032;-89
2023/09/02 04:38:05;;;;;;;5.35;4.75;;;16.30;99.90;;;;;;6120290;23;20017;-89
2023/09/02 04:40:35;;;;;;;6.28;4.93;;;16.30;99.90;;;;;;6138034;23;20047;-90
2023/09/02 04:43:00;;;;;;;6.15;4.60;;;16.30;99.90;;;;;;6114212;23;20009;-89
2023/09/02 04:45:26;;;;;;;5.15;4.65;;;16.30;99.90;;;;;;6159675;23;20081;-88
2023/09/02 04:47:52;;;;;;;7.60;5.18;;;16.40;99.90;;;;;;6159661;23;20028;-88
2023/09/02 04:50:18;;;;;;;6.50;4.60;;;16.30;99.90;;;;;;6120875;23;20330;-88
2023/09/02 04:52:44;;;;;;;6.82;6.13;;;16.30;99.90;;;;;;6092320;23;20013;-89
2023/09/02 04:55:10;;;;;;;7.00;6.25;;;16.40;99.90;;;;;;6150470;23;20062;-89
2023/09/02 04:57:36;;;;;;;8.35;7.45;;;16.30;99.90;;;;;;6131282;23;20025;-89
2023/09/02 05:00:03;;;;;;;9.60;8.00;;;16.40;99.90;;;;;;6123961;23;20084;-90
2023/09/02 05:02:29;;;;;;;8.82;7.10;;;16.30;99.90;;;;;;6138197;23;20446;-89
2023/09/02 05:04:55;;;;;;;17.50;12.90;;;16.40;99.90;;;;;;6137749;23;20020;-89
2023/09/02 05:07:23;;;;;;;10.07;8.60;;;16.40;99.90;;;;;;6135274;23;20583;-89
2023/09/02 05:09:51;;;;;;;12.23;7.90;;;16.20;99.90;;;;;;6110492;23;20009;-90
2023/09/02 05:12:20;;;;;;;8.70;7.75;;;16.60;99.90;;;;;;6133859;23;20017;-90
2023/09/02 05:14:45;;;;;;;10.68;7.47;;;16.60;99.90;;;;;;6086413;23;20013;-89
2023/09/02 05:17:11;;;;;;;8.60;7.68;;;16.50;99.90;;;;;;6133118;23;20083;-89
2023/09/02 05:19:37;;;;;;;12.18;8.05;;;16.50;99.90;;;;;;6106052;23;20020;-89
2023/09/02 05:22:03;;;;;;;12.75;7.57;;;16.60;99.90;;;;;;6109008;23;20016;-90
2023/09/02 05:24:32;;;;;;;8.32;7.13;;;16.10;99.90;;;;;;6134258;23;20067;-90
2023/09/02 05:26:58;;;;;;;10.10;7.72;;;16.70;99.90;;;;;;6110465;23;20017;-89
2023/09/02 05:29:23;;;;;;;9.77;7.93;;;16.70;99.90;;;;;;6133242;23;20013;-90
2023/09/02 05:31:49;;;;;;;10.38;8.63;;;16.70;99.90;;;;;;6134061;23;20013;-90
2023/09/02 05:34:15;;;;;;;10.23;7.60;;;16.80;99.90;;;;;;6133583;23;20385;-89
2023/09/02 05:36:41;;;;;;;9.55;8.30;;;16.80;99.90;;;;;;6133717;23;20025;-90
2023/09/02 05:39:07;;;;;;;13.15;9.80;;;16.90;99.90;;;;;;6133312;23;20438;-90
2023/09/02 05:41:33;;;;;;;10.82;9.63;;;16.90;99.90;;;;;;6109729;23;20700;-90
2023/09/02 05:44:00;;;;;;;12.00;10.27;;;16.90;99.90;;;;;;6134078;23;20044;-90
2023/09/02 05:46:25;;;;;;;12.13;9.95;;;17.00;99.90;;;;;;6109866;23;20700;-90
2023/09/02 05:48:51;;;;;;;10.73;8.88;;;17.10;99.90;;;;;;6109488;23;20013;-91
2023/09/02 05:51:22;;;;;;;9.35;8.18;;;17.10;99.90;;;;;;6134079;23;20022;-90
2023/09/02 05:53:48;;;;;;;10.38;9.02;;;17.10;99.90;;;;;;6134186;23;20013;-91
2023/09/02 05:56:14;;;;;;;11.43;9.55;;;17.10;99.90;;;;;;6109467;23;20040;-90
2023/09/02 05:58:40;;;;;;;15.18;11.88;;;17.20;99.90;;;;;;6133893;23;20016;-89
2023/09/02 06:01:06;;;;;;;19.98;14.65;;;17.30;99.90;;;;;;6133280;23;20055;-89
2023/09/02 06:03:32;;;;;;;14.50;11.85;;;17.50;99.90;;;;;;6109225;23;20017;-90
2023/09/02 06:05:58;;;;;;;14.82;11.40;;;17.60;99.90;;;;;;6133898;23;20013;-91
2023/09/02 06:08:24;;;;;;;14.27;9.98;;;17.70;99.90;;;;;;6109393;23;20330;-90
2023/09/02 06:10:59;;;;;;;12.75;9.95;;;17.50;99.90;;;;;;6134211;23;20378;-90
2023/09/02 06:13:26;;;;;;;14.05;10.00;;;17.60;99.90;;;;;;6133862;23;20100;-90
2023/09/02 06:15:56;;;;;;;11.80;9.73;;;17.60;99.90;;;;;;6134295;23;20320;-91
2023/09/02 06:18:22;;;;;;;12.07;9.77;;;17.60;99.90;;;;;;6134142;23;20334;-91
2023/09/02 06:20:47;;;;;;;15.90;11.23;;;17.70;99.90;;;;;;6133621;23;20009;-90
2023/09/02 06:23:14;;;;;;;18.90;13.30;;;17.90;99.90;;;;;;6108900;23;20013;-92
2023/09/02 06:25:54;;;;;;;16.90;13.15;;;17.90;99.90;;;;;;6134843;23;20346;-89
2023/09/02 06:28:39;;;;;;;17.45;13.63;;;17.70;99.90;;;;;;6136037;23;20021;-90
2023/09/02 06:31:21;;;;;;;18.95;13.82;;;18.30;99.90;;;;;;6131099;23;20052;-90
2023/09/02 06:34:27;;;;;;;19.88;14.07;;;18.10;99.90;;;;;;6134989;23;20044;-92
2023/09/02 06:37:04;;;;;;;17.02;12.40;;;18.30;99.90;;;;;;6136798;23;20027;-91
2023/09/02 06:39:31;;;;;;;18.48;12.65;;;18.30;99.90;;;;;;6111421;23;20013;-90
2023/09/02 06:41:57;;;;;;;16.77;12.00;;;18.40;99.90;;;;;;6134674;23;20071;-90
2023/09/02 06:44:22;;;;;;;16.00;11.07;;;18.50;99.90;;;;;;6135321;23;20013;-91
2023/09/02 06:46:51;;;;;;;17.27;11.50;;;18.60;99.90;;;;;;6135205;23;20073;-91
2023/09/02 06:49:17;;;;;;;22.25;12.20;;;18.90;99.90;;;;;;6135081;23;20024;-90
2023/09/02 06:51:46;;;;;;;16.65;12.13;;;18.50;99.90;;;;;;6135028;23;20013;-91
2023/09/02 06:54:14;;;;;;;17.73;12.57;;;19.00;99.90;;;;;;6135778;23;20484;-92
2023/09/02 06:56:40;;;;;;;17.05;12.32;;;18.60;99.90;;;;;;6134523;23;20051;-89
2023/09/02 06:59:06;;;;;;;18.33;13.70;;;19.00;99.90;;;;;;6134786;23;20365;-90
2023/09/02 07:01:38;;;;;;;18.55;12.70;;;19.20;99.90;;;;;;6110722;23;20009;-91
2023/09/02 07:04:03;;;;;;;19.45;14.02;;;19.20;99.90;;;;;;6110899;23;20024;-91
2023/09/02 07:06:31;;;;;;;17.15;11.95;;;19.50;99.90;;;;;;6110316;23;20013;-91
2023/09/02 07:08:57;;;;;;;16.60;11.90;;;19.40;99.90;;;;;;6112228;23;20714;-91
2023/09/02 07:11:29;;;;;;;15.43;11.98;;;19.50;99.90;;;;;;6136419;23;20434;-90
2023/09/02 07:13:56;;;;;;;17.75;12.45;;;19.40;99.90;;;;;;6135379;23;20044;-91
2023/09/02 07:16:26;;;;;;;13.52;11.18;;;19.80;99.90;;;;;;6134919;23;20017;-92
2023/09/02 07:18:52;;;;;;;17.83;13.13;;;19.10;99.90;;;;;;6136468;23;20531;-92
2023/09/02 07:21:26;;;;;;;20.75;13.30;;;19.80;99.90;;;;;;6111633;23;20013;-90
2023/09/02 07:23:52;;;;;;;19.83;14.63;;;20.00;99.90;;;;;;6138796;23;20076;-91
2023/09/02 07:26:18;;;;;;;20.48;13.80;;;20.00;99.90;;;;;;6112141;23;20017;-91
2023/09/02 07:28:45;;;;;;;18.45;12.55;;;20.00;99.90;;;;;;6135191;23;20024;-91
2023/09/02 07:31:13;;;;;;;17.27;13.30;;;20.30;99.90;;;;;;6134740;23;20319;-91
2023/09/02 07:33:41;;;;;;;14.98;13.00;;;20.40;99.90;;;;;;6134573;23;20017;-90
2023/09/02 07:36:16;;;;;;;21.58;14.88;;;20.30;99.90;;;;;;6136133;23;20024;-91
2023/09/02 07:38:54;;;;;;;19.45;13.65;;;20.50;99.90;;;;;;6134564;23;20012;-92
2023/09/02 07:41:20;;;;;;;16.80;13.10;;;20.50;99.90;;;;;;6135571;23;20020;-91
2023/09/02 07:44:01;;;;;;;23.48;15.43;;;20.60;99.90;;;;;;6136155;23;20013;-91
2023/09/02 07:46:38;;;;;;;19.73;15.85;;;20.90;99.90;;;;;;6135324;23;20016;-92
2023/09/02 07:49:12;;;;;;;19.70;14.60;;;20.80;99.90;;;;;;6136667;23;20017;-91
2023/09/02 07:52:12;;;;;;;18.30;14.10;;;20.90;99.90;;;;;;6111588;23;20021;-92
2023/09/02 07:54:41;;;;;;;16.83;12.60;;;21.00;99.90;;;;;;6134722;23;20017;-91
2023/09/02 07:57:09;;;;;;;18.63;14.27;;;21.10;99.90;;;;;;6110630;23;20312;-91
2023/09/02 07:59:37;;;;;;;22.58;14.45;;;21.20;99.90;;;;;;6134734;23;20033;-91
2023/09/02 08:02:07;;;;;;;19.92;13.50;;;21.30;99.90;;;;;;6133991;23;20066;-92
2023/09/02 08:04:35;;;;;;;18.13;12.90;;;21.30;99.90;;;;;;6111589;23;20434;-92
2023/09/02 08:07:17;;;;;;;15.43;11.98;;;21.30;99.90;;;;;;6110464;23;20110;-91
2023/09/02 08:09:56;;;;;;;16.15;11.88;;;21.50;99.90;;;;;;6132202;23;20023;-92
2023/09/02 08:12:22;;;;;;;14.73;11.60;;;21.60;99.90;;;;;;6135197;23;20032;-91
2023/09/02 08:14:48;;;;;;;15.35;12.00;;;21.80;99.90;;;;;;6134043;23;20052;-91
2023/09/02 08:17:19;;;;;;;13.70;10.55;;;21.80;99.90;;;;;;6110287;23;20020;-92
2023/09/02 08:19:45;;;;;;;14.82;10.80;;;21.70;99.90;;;;;;6134883;23;20200;-91
2023/09/02 08:22:23;;;;;;;13.23;9.90;;;21.80;99.90;;;;;;6110916;23;20044;-92
2023/09/02 08:24:49;;;;;;;14.10;9.38;;;22.00;99.90;;;;;;6110010;23;20009;-91
2023/09/02 08:27:18;;;;;;;11.75;9.50;;;22.20;99.90;;;;;;6134946;23;20346;-90
2023/09/02 08:29:44;;;;;;;13.55;10.07;;;22.10;99.90;;;;;;6134221;23;20095;-92
2023/09/02 08:32:13;;;;;;;14.57;10.02;;;22.20;99.90;;;;;;6135176;23;20075;-92
2023/09/02 08:34:39;;;;;;;12.38;9.77;;;22.30;99.90;;;;;;6134527;23;20017;-92
2023/09/02 08:37:11;;;;;;;16.00;9.57;;;22.30;99.90;;;;;;6134662;23;20052;-93
2023/09/02 08:39:37;;;;;;;11.30;9.15;;;22.10;99.90;;;;;;6134841;23;20441;-92
2023/09/02 08:42:06;;;;;;;12.60;9.27;;;22.40;99.90;;;;;;6112057;23;20013;-91
2023/09/02 08:44:38;;;;;;;12.63;9.05;;;22.50;99.90;;;;;;6110270;23;20013;-93
2023/09/02 08:47:05;;;;;;;11.80;8.38;;;22.40;99.90;;;;;;6135253;23;20028;-91
2023/09/02 08:49:33;;;;;;;9.82;8.60;;;22.60;99.90;;;;;;6134370;23;20048;-91
2023/09/02 08:52:01;;;;;;;10.05;9.02;;;22.80;99.90;;;;;;6134920;23;20023;-92
2023/09/02 08:54:30;;;;;;;13.32;9.70;;;22.80;99.90;;;;;;6135860;23;20013;-92
2023/09/02 08:57:11;;;;;;;12.88;8.52;;;22.90;99.90;;;;;;6131460;23;20024;-92
2023/09/02 08:59:46;;;;;;;12.10;9.55;;;22.90;99.90;;;;;;6136360;23;20021;-92
2023/09/02 09:02:15;;;;;;;9.20;8.00;;;23.00;99.90;;;;;;6134845;23;20017;-92
2023/09/02 09:04:41;;;;;;;8.70;7.63;;;23.00;99.90;;;;;;6135027;23;20377;-91
2023/09/02 09:07:09;;;;;;;11.10;8.90;;;23.10;99.90;;;;;;6110225;23;20582;-93
2023/09/02 09:09:37;;;;;;;11.68;8.27;;;23.20;99.90;;;;;;6134845;23;20435;-92
2023/09/02 09:12:27;;;;;;;10.70;7.68;;;23.40;99.90;;;;;;6111346;23;20398;-95
2023/09/02 09:15:00;;;;;;;11.85;8.45;;;23.40;99.90;;;;;;6124167;23;20693;-93
2023/09/02 09:17:28;;;;;;;9.98;7.88;;;23.50;99.90;;;;;;6133711;23;20432;-92
2023/09/02 09:20:07;;;;;;;;;;;;;;;;;;;;;
2023/09/02 09:22:40;;;;;;;8.93;7.30;;;23.70;99.90;;;;;;6158770;23;20017;-92
2023/09/02 09:25:14;;;;;;;11.50;7.50;;;23.80;99.90;;;;;;6135219;23;20446;-92
2023/09/02 09:27:43;;;;;;;12.07;7.88;;;23.80;99.90;;;;;;6134103;23;20024;-92
2023/09/02 09:30:30;;;;;;;9.30;7.15;;;24.10;99.90;;;;;;6135606;23;20071;-92
2023/09/02 09:33:12;;;;;;;10.55;7.18;;;24.40;99.90;;;;;;6138959;23;20064;-92
2023/09/02 09:35:45;;;;;;;11.37;6.63;;;24.80;99.90;;;;;;6112410;23;20079;-93
2023/09/02 09:38:52;;;;;;;11.05;7.07;;;24.70;99.90;;;;;;6112514;23;20434;-93
2023/09/02 09:41:27;;;;;;;8.85;6.80;;;24.70;99.90;;;;;;6133571;23;20020;-93
2023/09/02 09:44:41;;;;;;;;;;;;;;;;;;;;;
2023/09/02 09:55:35;;;;;;;10.80;7.53;;;24.90;99.90;;;;;;6186459;23;20063;-93
2023/09/02 09:58:25;;;;;;;7.53;6.43;;;24.40;99.90;;;;;;5991000;23;20022;-92
2023/09/02 10:00:56;;;;;;;9.85;6.63;;;24.70;99.90;;;;;;5991213;23;20018;-92
2023/09/02 10:03:35;;;;;;;10.55;6.85;;;25.20;99.90;;;;;;5991581;23;20019;-93
2023/09/02 10:06:07;;;;;;;;;;;25.70;99.90;;;;;;6064083;23;20017;-92
2023/09/02 10:08:53;;;;;;;7.43;5.85;;;25.90;99.90;;;;;;6136541;23;20626;-94
2023/09/02 10:11:23;;;;;;;8.57;6.88;;;26.30;99.90;;;;;;6135796;23;20013;-92
2023/09/02 10:14:00;;;;;;;10.32;6.78;;;26.50;99.90;;;;;;6135689;23;20048;-92
2023/09/02 10:16:30;;;;;;;7.78;6.45;;;26.80;99.90;;;;;;6136374;23;20039;-92
2023/09/02 10:18:58;;;;;;;7.57;6.82;;;26.80;99.90;;;;;;6136229;23;20024;-91
2023/09/02 10:21:31;;;;;;;8.35;6.47;;;26.80;99.90;;;;;;6111958;23;20020;-92
2023/09/02 10:24:21;;;;;;;7.18;5.55;;;26.90;99.90;;;;;;6135791;23;20047;-92
2023/09/02 10:27:45;;;;;;;7.28;5.82;;;26.90;99.90;;;;;;6147739;23;20029;-92
2023/09/02 10:30:49;;;;;;;7.32;5.70;;;27.10;99.90;;;;;;6136798;23;20013;-91
2023/09/02 10:33:38;;;;;;;7.57;5.72;;;27.20;99.90;;;;;;6136399;23;20049;-92
2023/09/02 10:39:40;;;;;;;6.55;5.47;;;27.30;99.90;;;;;;6187534;23;20016;-94
2023/09/02 10:42:15;;;;;;;9.25;5.95;;;27.20;99.90;;;;;;6136811;23;20020;-93
2023/09/02 10:44:54;;;;;;;5.80;5.20;;;26.90;99.90;;;;;;6138566;23;20020;-94
2023/09/02 10:47:26;;;;;;;6.63;5.40;;;26.50;99.90;;;;;;6136991;23;20024;-94
2023/09/02 10:49:57;;;;;;;8.70;6.25;;;26.30;99.90;;;;;;6137462;23;20080;-93
2023/09/02 11:00:09;;;;;;;8.25;6.57;;;25.40;99.90;;;;;;6178568;23;20120;-93
2023/09/02 11:02:51;;;;;;;8.27;5.20;;;25.20;99.90;;;;;;6116327;23;20061;-91
2023/09/02 11:05:35;;;;;;;6.82;5.18;;;25.10;99.90;;;;;;6146679;23;20021;-94
2023/09/02 11:08:53;;;;;;;8.27;5.35;;;25.30;99.90;;;;;;6112557;23;20021;-93
2023/09/02 11:15:36;;;;;;;7.88;5.80;;;26.00;99.90;;;;;;6186863;23;20373;-92
2023/09/02 11:18:32;;;;;;;7.88;4.78;;;26.20;99.90;;;;;;6137477;23;20009;-92
2023/09/02 11:21:15;;;;;;;5.82;4.60;;;26.40;99.90;;;;;;6137660;23;20020;-91
2023/09/02 11:24:31;;;;;;;;;;;;;;;;;;;;;
2023/09/02 11:27:00;;;;;;;6.35;4.50;;;26.80;99.90;;;;;;6185254;23;20658;-90
2023/09/02 11:29:32;;;;;;;4.57;3.70;;;26.70;99.90;;;;;;6136557;23;20021;-90
2023/09/02 11:35:11;;;;;;;5.25;4.03;;;27.00;99.90;;;;;;6128930;23;20016;-91
2023/09/02 11:37:55;;;;;;;5.85;4.07;;;26.90;99.90;;;;;;6136513;23;20104;-94
2023/09/02 11:40:26;;;;;;;4.38;3.92;;;26.60;99.90;;;;;;6135995;23;20083;-93
2023/09/02 11:43:21;;;;;;;9.32;4.18;;;26.70;99.90;;;;;;6135480;23;20017;-93
2023/09/02 11:45:56;;;;;;;8.15;4.15;;;26.60;99.90;;;;;;6136976;23;20333;-93
2023/09/02 11:48:30;;;;;;;4.93;4.15;;;27.00;99.90;;;;;;6135976;23;20092;-93
2023/09/02 11:51:26;;;;;;;7.70;4.70;;;27.30;99.90;;;;;;6088278;23;20013;-92
2023/09/02 11:54:15;;;;;;;3.92;3.42;;;27.10;99.90;;;;;;6121492;23;20009;-92
2023/09/02 11:57:35;;;;;;;5.45;3.80;;;26.80;99.90;;;;;;6136353;23;20017;-92
2023/09/02 12:00:46;;;;;;;5.18;3.90;;;26.60;99.90;;;;;;6136899;23;20013;-92
2023/09/02 12:03:31;;;;;;;6.53;4.40;;;26.50;99.90;;;;;;6136998;23;20013;-91
2023/09/02 12:06:30;;;;;;;4.82;4.25;;;26.50;99.90;;;;;;6131117;23;20107;-91
2023/09/02 12:09:02;;;;;;;4.65;4.22;;;26.70;99.90;;;;;;6117443;23;20028;-90
2023/09/02 12:11:32;;;;;;;7.65;4.20;;;26.80;99.90;;;;;;6138723;23;20462;-92
2023/09/02 12:14:01;;;;;;;5.45;4.10;;;26.60;99.90;;;;;;6137631;23;20104;-90
2023/09/02 12:16:36;;;;;;;7.03;4.20;;;26.40;99.90;;;;;;6138745;23;20050;-90
2023/09/02 12:19:08;;;;;;;4.60;4.18;;;26.60;99.90;;;;;;6116029;23;20394;-92
2023/09/02 12:22:27;;;;;;;3.50;2.90;;;26.60;99.90;;;;;;6149684;23;20043;-92
2023/09/02 12:25:38;;;;;;;5.13;2.95;;;26.60;99.90;;;;;;6128836;23;20017;-91
2023/09/02 12:28:49;;;;;;;4.03;3.10;;;26.40;99.90;;;;;;6132965;23;20017;-92
2023/09/02 12:31:46;;;;;;;4.78;3.20;;;26.50;99.90;;;;;;6112884;23;20087;-91
2023/09/02 12:34:56;;;;;;;5.13;4.03;;;26.30;99.90;;;;;;6114854;23;20027;-93
2023/09/02 12:42:24;;;;;;;;;;;;;;;;;;;;;
2023/09/02 12:45:01;;;;;;;4.25;3.15;;;26.40;99.90;;;;;;5966500;23;20017;-93
2023/09/02 12:47:37;;;;;;;5.73;3.17;;;26.40;99.90;;;;;;5967280;23;20057;-91
2023/09/02 12:53:59;;;;;;;6.30;3.83;;;26.50;99.90;;;;;;5980277;23;20329;-92
2023/09/02 12:56:54;;;;;;;3.53;3.20;;;26.60;99.90;;;;;;6042147;23;20101;-91
2023/09/02 12:59:25;;;;;;;;;;;26.70;99.90;;;;;;6090373;23;20096;-91
2023/09/02 13:01:54;;;;;;;4.63;2.95;;;26.70;99.90;;;;;;6110141;23;19924;-91
2023/09/02 13:04:27;;;;;;;3.92;2.85;;;26.60;99.90;;;;;;6110155;23;20017;-93
2023/09/02 13:07:22;;;;;;;3.90;3.15;;;26.70;99.90;;;;;;6118109;23;20029;-93
2023/09/02 13:09:53;;;;;;;4.35;2.88;;;26.40;99.90;;;;;;6134514;23;20048;-91
2023/09/02 13:12:33;;;;;;;5.32;2.40;;;26.50;99.90;;;;;;6135937;23;20437;-95
2023/09/02 13:15:17;;;;;;;3.90;2.65;;;26.80;99.90;;;;;;6136502;23;20017;-92
2023/09/02 13:18:00;;;;;;;3.25;2.42;;;26.60;99.90;;;;;;6112669;23;20025;-90
2023/09/02 13:20:35;;;;;;;4.55;2.60;;;26.40;99.90;;;;;;6136304;23;20077;-92
2023/09/02 13:23:10;;;;;;;4.57;2.85;;;26.30;99.90;;;;;;6115272;23;20024;-92
2023/09/02 13:25:50;;;;;;;4.80;2.92;;;26.00;99.90;;;;;;6111343;23;20083;-92
2023/09/02 13:28:45;;;;;;;3.40;2.33;;;26.10;99.90;;;;;;6136950;23;20052;-91
2023/09/02 13:38:45;;;;;;;2.78;2.22;;;26.50;99.90;;;;;;6091713;23;20108;-94
2023/09/02 13:53:19;;;;;;;3.08;1.88;;;27.60;99.90;;;;;;6031546;23;20054;-93
2023/09/02 13:56:26;;;;;;;4.85;2.10;;;26.90;99.90;;;;;;5995245;23;20488;-93
2023/09/02 13:58:54;;;;;;;4.35;2.17;;;26.80;99.90;;;;;;5997651;23;20030;-92
2023/09/02 14:01:20;;;;;;;2.20;1.90;;;27.20;99.90;;;;;;5996357;23;20050;-91
2023/09/02 14:08:36;;;;;;;2.53;2.08;;;27.40;99.90;;;;;;6188551;23;20048;-91
2023/09/02 14:11:11;;;;;;;4.20;2.13;;;26.80;99.90;;;;;;6043779;23;20022;-92
2023/09/02 14:17:36;;;;;;;3.88;1.98;;;26.50;99.90;;;;;;6006908;23;20466;-93
2023/09/02 14:20:19;;;;;;;3.67;1.92;;;26.30;99.90;;;;;;5996699;23;20015;-92
2023/09/02 14:23:13;;;;;;;2.10;1.85;;;26.10;99.90;;;;;;6111101;23;20017;-91